Time,TemperatureF,DewpointF,PressureIn,WindDirection,WindDirectionDegrees,WindSpeedMPH,WindSpeedGustMPH,Humidity,HourlyPrecipIn,Conditions,Clouds,dailyrainin,SolarRadiationWatts/m^2,SoftwareType,DateUTC
2013-09-12 00:44:00,69.0,68.0,-100.00,WSW,250,2.0,4.0,97,0.00,,,0.00,0.000000,,2013-09-12 04:44:00,
2013-09-12 00:54:00,69.0,68.0,-100.00,WSW,250,2.0,4.0,97,0.00,,,0.00,0.000000,,2013-09-12 04:54:00,
2013-09-12 01:03:00,69.0,68.0,-100.00,WSW,250,2.0,4.0,97,0.00,,,0.00,0.000000,,2013-09-12 05:03:00,
2013-09-12 01:43:00,68.0,67.0,-100.00,SE,138,2.0,4.0,98,0.00,,,0.00,0.000000,,2013-09-12 05:43:00,
2013-09-12 01:53:00,68.0,67.0,-100.00,SE,138,2.0,4.0,98,0.00,,,0.00,0.000000,,2013-09-12 05:53:00,
2013-09-12 02:01:00,68.0,67.0,-100.00,SE,138,2.0,4.0,98,0.00,,,0.00,0.000000,,2013-09-12 06:01:00,
2013-09-12 02:42:00,67.0,66.0,-100.00,WNW,296,2.0,4.0,98,0.00,,,0.00,0.000000,,2013-09-12 06:42:00,
2013-09-12 02:52:00,67.0,66.0,-100.00,WNW,296,2.0,4.0,98,0.00,,,0.00,0.000000,,2013-09-12 06:52:00,
2013-09-12 03:02:00,67.0,66.0,-100.00,WNW,296,2.0,4.0,98,0.00,,,0.00,0.000000,,2013-09-12 07:02:00,
2013-09-12 03:44:00,67.0,66.0,-100.00,West,264,2.0,4.0,98,0.00,,,0.00,0.000000,,2013-09-12 07:44:00,
2013-09-12 03:53:00,67.0,66.0,-100.00,West,264,2.0,4.0,98,0.00,,,0.00,0.000000,,2013-09-12 07:53:00,
2013-09-12 04:02:00,67.0,66.0,-100.00,West,264,2.0,4.0,98,0.00,,,0.00,0.000000,,2013-09-12 08:02:00,
2013-09-12 04:42:00,66.0,65.0,-100.00,NNE,28,1.0,5.0,98,0.00,,,0.00,0.000000,,2013-09-12 08:42:00,
2013-09-12 04:52:00,66.0,65.0,-100.00,NNE,28,1.0,5.0,98,0.00,,,0.00,0.000000,,2013-09-12 08:52:00,
2013-09-12 05:02:00,66.0,65.0,-100.00,NNE,28,1.0,5.0,98,0.00,,,0.00,0.000000,,2013-09-12 09:02:00,
2013-09-12 05:43:00,65.0,64.0,-100.00,East,87,0.0,5.0,98,0.00,,,0.00,0.000000,,2013-09-12 09:43:00,
2013-09-12 05:53:00,65.0,64.0,-100.00,East,87,0.0,5.0,98,0.00,,,0.00,0.000000,,2013-09-12 09:53:00,
2013-09-12 06:03:00,65.0,64.0,-100.00,East,87,0.0,5.0,98,0.00,,,0.00,0.000000,,2013-09-12 10:03:00,
2013-09-12 06:43:00,65.0,64.0,-100.00,NNE,29,1.0,4.0,98,0.00,,,0.00,0.000000,,2013-09-12 10:43:00,
2013-09-12 06:53:00,65.0,64.0,-100.00,NNE,29,1.0,4.0,98,0.00,,,0.00,0.000000,,2013-09-12 10:53:00,
2013-09-12 07:03:00,65.0,64.0,-100.00,NNE,29,1.0,4.0,98,0.00,,,0.00,0.000000,,2013-09-12 11:03:00,
2013-09-12 07:42:00,65.0,64.0,-100.00,WNW,299,0.0,0.0,98,0.00,,,0.00,0.000000,,2013-09-12 11:42:00,
2013-09-12 07:52:00,65.0,64.0,-100.00,WNW,299,0.0,0.0,98,0.00,,,0.00,0.000000,,2013-09-12 11:52:00,
2013-09-12 08:01:00,65.0,64.0,-100.00,WNW,299,0.0,0.0,98,0.00,,,0.00,0.000000,,2013-09-12 12:01:00,
2013-09-12 08:42:00,65.0,64.0,-100.00,NNW,334,0.0,0.0,98,0.00,,,-99.99,13.000000,,2013-09-12 12:42:00,
2013-09-12 08:52:00,65.0,64.0,-100.00,NNW,334,0.0,0.0,98,0.00,,,-99.99,13.000000,,2013-09-12 12:52:00,
2013-09-12 09:02:00,65.0,64.0,-100.00,NNW,334,0.0,0.0,98,0.00,,,-99.99,13.000000,,2013-09-12 13:02:00,
2013-09-12 09:42:00,68.0,67.0,-100.00,NNW,342,0.0,0.0,98,0.00,,,0.00,68.000000,,2013-09-12 13:42:00,
2013-09-12 09:52:00,68.0,67.0,-100.00,NNW,342,0.0,0.0,98,0.00,,,0.00,68.000000,,2013-09-12 13:52:00,
2013-09-12 10:02:00,68.0,67.0,-100.00,NNW,342,0.0,0.0,98,0.00,,,0.00,68.000000,,2013-09-12 14:02:00,
2013-09-12 10:42:00,73.0,71.0,-100.00,NNE,19,2.0,6.0,94,0.00,,,0.00,174.000000,,2013-09-12 14:42:00,
2013-09-12 10:52:00,73.0,71.0,-100.00,NNE,19,2.0,6.0,94,0.00,,,0.00,174.000000,,2013-09-12 14:52:00,
2013-09-12 11:02:00,73.0,71.0,-100.00,NNE,19,2.0,6.0,94,0.00,,,0.00,174.000000,,2013-09-12 15:02:00,
2013-09-12 11:44:00,82.0,72.0,-100.00,NE,42,5.0,10.0,73,0.00,,,0.00,615.000000,,2013-09-12 15:44:00,
2013-09-12 11:54:00,82.0,72.0,-100.00,NE,42,5.0,10.0,73,0.00,,,0.00,615.000000,,2013-09-12 15:54:00,
2013-09-12 12:03:00,82.0,72.0,-100.00,NE,42,5.0,10.0,73,0.00,,,0.00,615.000000,,2013-09-12 16:03:00,
2013-09-12 12:43:00,86.0,71.0,-100.00,NNE,20,4.0,8.0,62,0.00,,,0.00,720.000000,,2013-09-12 16:43:00,
2013-09-12 12:53:00,86.0,71.0,-100.00,NNE,20,4.0,8.0,62,0.00,,,0.00,720.000000,,2013-09-12 16:53:00,
2013-09-12 13:03:00,86.0,71.0,-100.00,NNE,20,4.0,8.0,62,0.00,,,0.00,720.000000,,2013-09-12 17:03:00,
2013-09-12 13:43:00,91.0,72.0,-100.00,NNE,31,4.0,10.0,54,0.00,,,0.00,813.000000,,2013-09-12 17:43:00,
2013-09-12 13:54:00,91.0,72.0,-100.00,NNE,31,4.0,10.0,54,0.00,,,0.00,813.000000,,2013-09-12 17:54:00,
2013-09-12 14:02:00,91.0,72.0,-100.00,NNE,31,4.0,10.0,54,0.00,,,0.00,813.000000,,2013-09-12 18:02:00,
2013-09-12 14:42:00,91.0,70.0,-100.00,WNW,303,6.0,11.0,50,0.00,,,0.00,842.000000,,2013-09-12 18:42:00,
2013-09-12 14:52:00,91.0,70.0,-100.00,WNW,303,6.0,11.0,50,0.00,,,0.00,842.000000,,2013-09-12 18:52:00,
2013-09-12 15:02:00,91.0,70.0,-100.00,WNW,303,6.0,11.0,50,0.00,,,0.00,842.000000,,2013-09-12 19:02:00,
2013-09-12 15:42:00,92.0,68.0,-100.00,NW,315,6.0,12.0,46,0.00,,,0.00,800.000000,,2013-09-12 19:42:00,
2013-09-12 15:52:00,92.0,68.0,-100.00,NW,315,6.0,12.0,46,0.00,,,0.00,800.000000,,2013-09-12 19:52:00,
2013-09-12 16:02:00,92.0,68.0,-100.00,NW,315,6.0,12.0,46,0.00,,,0.00,800.000000,,2013-09-12 20:02:00,
2013-09-12 16:42:00,91.0,68.0,-100.00,NW,307,5.0,10.0,47,0.00,,,0.00,673.000000,,2013-09-12 20:42:00,
2013-09-12 16:52:00,91.0,68.0,-100.00,NW,307,5.0,10.0,47,0.00,,,0.00,673.000000,,2013-09-12 20:52:00,
2013-09-12 17:02:00,91.0,68.0,-100.00,NW,307,5.0,10.0,47,0.00,,,0.00,673.000000,,2013-09-12 21:02:00,
2013-09-12 17:43:00,86.0,68.0,-100.00,WNW,300,4.0,10.0,56,0.00,,,0.00,479.000000,,2013-09-12 21:43:00,
2013-09-12 17:54:00,86.0,68.0,-100.00,WNW,300,4.0,10.0,56,0.00,,,0.00,479.000000,,2013-09-12 21:54:00,
2013-09-12 18:04:00,86.0,68.0,-100.00,WNW,300,4.0,10.0,56,0.00,,,0.00,479.000000,,2013-09-12 22:04:00,
2013-09-12 20:42:00,75.0,73.0,-100.00,WNW,297,4.0,6.0,92,0.00,,,0.00,2.000000,,2013-09-13 00:42:00,
2013-09-12 20:52:00,75.0,73.0,-100.00,WNW,297,4.0,6.0,92,0.00,,,0.00,2.000000,,2013-09-13 00:52:00,
2013-09-12 21:02:00,75.0,73.0,-100.00,WNW,297,4.0,6.0,92,0.00,,,0.00,2.000000,,2013-09-13 01:02:00,
2013-09-12 21:42:00,73.0,71.0,-100.00,NW,309,3.0,5.0,94,0.00,,,0.00,0.000000,,2013-09-13 01:42:00,
2013-09-12 21:53:00,73.0,71.0,-100.00,NW,309,3.0,5.0,94,0.00,,,0.00,0.000000,,2013-09-13 01:53:00,
2013-09-12 22:02:00,73.0,71.0,-100.00,NW,309,3.0,5.0,94,0.00,,,0.00,0.000000,,2013-09-13 02:02:00,
2013-09-12 22:43:00,72.0,70.0,-100.00,NW,316,4.0,6.0,95,0.00,,,0.00,0.000000,,2013-09-13 02:43:00,
2013-09-12 22:53:00,72.0,70.0,-100.00,NW,316,4.0,6.0,95,0.00,,,0.00,0.000000,,2013-09-13 02:53:00,
2013-09-12 23:02:00,72.0,70.0,-100.00,NW,316,4.0,6.0,95,0.00,,,0.00,0.000000,,2013-09-13 03:02:00,
2013-09-12 23:45:00,73.0,71.0,-100.00,NW,319,5.0,9.0,92,0.00,,,0.00,0.000000,,2013-09-13 03:45:00,
2013-09-12 23:55:00,73.0,71.0,-100.00,NW,319,5.0,9.0,92,0.00,,,0.00,0.000000,,2013-09-13 03:55:00,